sensor_id;sensor_type;location;lat;lon;timestamp;temperature;humidity
67093;SHT31;54011;50.772;7.730;2023-07-29T00:00:47;23.06;76.53
67093;SHT31;54011;50.772;7.730;2023-07-29T00:03:13;23.07;76.65
67093;SHT31;54011;50.772;7.730;2023-07-29T00:05:42;23.17;76.23
67093;SHT31;54011;50.772;7.730;2023-07-29T00:08:15;23.19;76.18
67093;SHT31;54011;50.772;7.730;2023-07-29T00:11:02;23.16;76.44
67093;SHT31;54011;50.772;7.730;2023-07-29T00:13:28;23.21;76.14
67093;SHT31;54011;50.772;7.730;2023-07-29T00:15:54;23.26;76.02
67093;SHT31;54011;50.772;7.730;2023-07-29T00:18:22;23.34;75.80
67093;SHT31;54011;50.772;7.730;2023-07-29T00:20:48;23.57;75.25
67093;SHT31;54011;50.772;7.730;2023-07-29T00:23:13;23.28;75.68
67093;SHT31;54011;50.772;7.730;2023-07-29T00:25:39;23.13;76.18
67093;SHT31;54011;50.772;7.730;2023-07-29T00:28:05;22.83;77.00
67093;SHT31;54011;50.772;7.730;2023-07-29T00:30:32;23.02;76.49
67093;SHT31;54011;50.772;7.730;2023-07-29T00:32:57;23.09;76.34
67093;SHT31;54011;50.772;7.730;2023-07-29T00:35:24;22.89;76.35
67093;SHT31;54011;50.772;7.730;2023-07-29T00:37:49;23.14;76.12
67093;SHT31;54011;50.772;7.730;2023-07-29T00:40:19;23.58;74.89
67093;SHT31;54011;50.772;7.730;2023-07-29T00:42:48;23.40;75.30
67093;SHT31;54011;50.772;7.730;2023-07-29T00:45:16;23.23;75.81
67093;SHT31;54011;50.772;7.730;2023-07-29T00:47:42;23.21;75.57
67093;SHT31;54011;50.772;7.730;2023-07-29T00:50:13;22.71;77.51
67093;SHT31;54011;50.772;7.730;2023-07-29T00:52:40;22.99;76.33
67093;SHT31;54011;50.772;7.730;2023-07-29T00:55:07;23.04;76.13
67093;SHT31;54011;50.772;7.730;2023-07-29T00:57:35;23.24;75.48
67093;SHT31;54011;50.772;7.730;2023-07-29T01:00:04;23.41;75.26
67093;SHT31;54011;50.772;7.730;2023-07-29T01:02:30;23.34;75.45
67093;SHT31;54011;50.772;7.730;2023-07-29T01:04:58;23.70;74.60
67093;SHT31;54011;50.772;7.730;2023-07-29T01:10:32;23.74;74.44
67093;SHT31;54011;50.772;7.730;2023-07-29T01:13:24;23.39;75.41
67093;SHT31;54011;50.772;7.730;2023-07-29T01:15:55;23.53;74.67
67093;SHT31;54011;50.772;7.730;2023-07-29T01:18:26;23.21;75.55
67093;SHT31;54011;50.772;7.730;2023-07-29T01:20:54;23.41;75.19
67093;SHT31;54011;50.772;7.730;2023-07-29T01:23:24;23.16;75.53
67093;SHT31;54011;50.772;7.730;2023-07-29T01:25:51;23.21;75.72
67093;SHT31;54011;50.772;7.730;2023-07-29T01:28:18;23.00;76.20
67093;SHT31;54011;50.772;7.730;2023-07-29T01:30:45;23.09;76.17
67093;SHT31;54011;50.772;7.730;2023-07-29T01:33:35;23.13;75.99
67093;SHT31;54011;50.772;7.730;2023-07-29T01:36:08;23.09;76.22
67093;SHT31;54011;50.772;7.730;2023-07-29T01:38:42;22.90;76.70
67093;SHT31;54011;50.772;7.730;2023-07-29T01:41:09;23.17;76.06
67093;SHT31;54011;50.772;7.730;2023-07-29T01:43:36;23.03;76.35
67093;SHT31;54011;50.772;7.730;2023-07-29T01:46:12;23.02;76.51
67093;SHT31;54011;50.772;7.730;2023-07-29T01:48:38;23.00;76.61
67093;SHT31;54011;50.772;7.730;2023-07-29T01:51:04;23.09;76.39
67093;SHT31;54011;50.772;7.730;2023-07-29T01:53:30;23.07;76.18
67093;SHT31;54011;50.772;7.730;2023-07-29T01:55:55;23.02;76.22
67093;SHT31;54011;50.772;7.730;2023-07-29T01:58:23;23.03;76.24
67093;SHT31;54011;50.772;7.730;2023-07-29T02:00:50;22.95;76.34
67093;SHT31;54011;50.772;7.730;2023-07-29T02:03:16;22.88;76.57
67093;SHT31;54011;50.772;7.730;2023-07-29T02:05:41;22.86;77.09
67093;SHT31;54011;50.772;7.730;2023-07-29T02:08:10;23.07;76.35
67093;SHT31;54011;50.772;7.730;2023-07-29T02:10:37;22.83;76.78
67093;SHT31;54011;50.772;7.730;2023-07-29T02:13:03;23.06;76.59
67093;SHT31;54011;50.772;7.730;2023-07-29T02:15:29;23.07;76.38
67093;SHT31;54011;50.772;7.730;2023-07-29T02:17:55;23.02;76.30
67093;SHT31;54011;50.772;7.730;2023-07-29T02:20:21;23.12;76.60
67093;SHT31;54011;50.772;7.730;2023-07-29T02:22:49;23.17;76.32
67093;SHT31;54011;50.772;7.730;2023-07-29T02:25:16;23.21;76.38
67093;SHT31;54011;50.772;7.730;2023-07-29T02:27:41;22.93;76.80
67093;SHT31;54011;50.772;7.730;2023-07-29T02:30:07;23.09;76.41
67093;SHT31;54011;50.772;7.730;2023-07-29T02:32:36;22.79;77.15
67093;SHT31;54011;50.772;7.730;2023-07-29T02:35:02;22.85;77.25
67093;SHT31;54011;50.772;7.730;2023-07-29T02:37:28;23.16;76.50
67093;SHT31;54011;50.772;7.730;2023-07-29T02:39:54;23.07;76.87
67093;SHT31;54011;50.772;7.730;2023-07-29T02:42:19;23.21;76.18
67093;SHT31;54011;50.772;7.730;2023-07-29T02:44:45;23.26;76.35
67093;SHT31;54011;50.772;7.730;2023-07-29T02:47:10;23.24;76.09
67093;SHT31;54011;50.772;7.730;2023-07-29T02:49:38;23.16;76.13
67093;SHT31;54011;50.772;7.730;2023-07-29T02:52:03;23.03;76.17
67093;SHT31;54011;50.772;7.730;2023-07-29T02:54:29;23.17;76.52
67093;SHT31;54011;50.772;7.730;2023-07-29T02:56:54;23.00;76.41
67093;SHT31;54011;50.772;7.730;2023-07-29T02:59:21;23.12;76.57
67093;SHT31;54011;50.772;7.730;2023-07-29T03:01:46;23.07;76.19
67093;SHT31;54011;50.772;7.730;2023-07-29T03:04:12;23.26;76.02
67093;SHT31;54011;50.772;7.730;2023-07-29T03:06:38;23.12;76.16
67093;SHT31;54011;50.772;7.730;2023-07-29T03:09:04;23.28;75.82
67093;SHT31;54011;50.772;7.730;2023-07-29T03:11:30;23.28;75.86
67093;SHT31;54011;50.772;7.730;2023-07-29T03:13:57;22.90;77.11
67093;SHT31;54011;50.772;7.730;2023-07-29T03:16:26;22.89;76.89
67093;SHT31;54011;50.772;7.730;2023-07-29T03:18:54;23.16;76.33
67093;SHT31;54011;50.772;7.730;2023-07-29T03:21:19;22.89;76.62
67093;SHT31;54011;50.772;7.730;2023-07-29T03:23:46;22.82;76.93
67093;SHT31;54011;50.772;7.730;2023-07-29T03:26:12;22.96;76.57
67093;SHT31;54011;50.772;7.730;2023-07-29T03:28:40;22.83;76.95
67093;SHT31;54011;50.772;7.730;2023-07-29T03:31:05;22.90;76.67
67093;SHT31;54011;50.772;7.730;2023-07-29T03:33:32;22.71;77.00
67093;SHT31;54011;50.772;7.730;2023-07-29T03:35:58;22.88;76.94
67093;SHT31;54011;50.772;7.730;2023-07-29T03:38:23;22.76;77.46
67093;SHT31;54011;50.772;7.730;2023-07-29T03:40:50;22.76;77.21
67093;SHT31;54011;50.772;7.730;2023-07-29T03:43:16;22.69;77.37
67093;SHT31;54011;50.772;7.730;2023-07-29T03:45:42;22.98;76.77
67093;SHT31;54011;50.772;7.730;2023-07-29T03:48:08;22.90;77.05
67093;SHT31;54011;50.772;7.730;2023-07-29T03:50:35;22.95;76.90
67093;SHT31;54011;50.772;7.730;2023-07-29T03:53:02;22.96;76.91
67093;SHT31;54011;50.772;7.730;2023-07-29T03:55:28;23.06;76.61
67093;SHT31;54011;50.772;7.730;2023-07-29T03:57:58;23.33;75.93
67093;SHT31;54011;50.772;7.730;2023-07-29T04:00:27;22.99;76.96
67093;SHT31;54011;50.772;7.730;2023-07-29T04:02:53;23.23;76.17
67093;SHT31;54011;50.772;7.730;2023-07-29T04:05:19;23.37;75.75
67093;SHT31;54011;50.772;7.730;2023-07-29T04:07:45;22.96;76.88
67093;SHT31;54011;50.772;7.730;2023-07-29T04:10:12;23.26;76.03
67093;SHT31;54011;50.772;7.730;2023-07-29T04:12:39;22.98;76.10
67093;SHT31;54011;50.772;7.730;2023-07-29T04:15:05;23.16;76.33
67093;SHT31;54011;50.772;7.730;2023-07-29T04:17:31;23.37;75.73
67093;SHT31;54011;50.772;7.730;2023-07-29T04:19:56;23.49;75.90
67093;SHT31;54011;50.772;7.730;2023-07-29T04:22:27;23.54;75.54
67093;SHT31;54011;50.772;7.730;2023-07-29T04:24:53;23.30;76.19
67093;SHT31;54011;50.772;7.730;2023-07-29T04:27:19;22.68;78.55
67093;SHT31;54011;50.772;7.730;2023-07-29T04:29:44;23.14;77.18
67093;SHT31;54011;50.772;7.730;2023-07-29T04:32:10;22.99;77.54
67093;SHT31;54011;50.772;7.730;2023-07-29T04:34:37;22.82;77.73
67093;SHT31;54011;50.772;7.730;2023-07-29T04:37:02;22.90;77.92
67093;SHT31;54011;50.772;7.730;2023-07-29T04:39:28;22.77;77.80
67093;SHT31;54011;50.772;7.730;2023-07-29T04:41:54;22.96;76.95
67093;SHT31;54011;50.772;7.730;2023-07-29T04:44:20;23.20;76.46
67093;SHT31;54011;50.772;7.730;2023-07-29T04:46:45;22.93;77.25
67093;SHT31;54011;50.772;7.730;2023-07-29T04:49:12;23.00;77.35
67093;SHT31;54011;50.772;7.730;2023-07-29T04:51:37;22.93;77.35
67093;SHT31;54011;50.772;7.730;2023-07-29T04:54:03;23.33;76.50
67093;SHT31;54011;50.772;7.730;2023-07-29T04:56:30;23.31;76.72
67093;SHT31;54011;50.772;7.730;2023-07-29T04:58:56;23.46;76.22
67093;SHT31;54011;50.772;7.730;2023-07-29T05:01:22;23.39;76.22
67093;SHT31;54011;50.772;7.730;2023-07-29T05:03:48;23.04;76.73
67093;SHT31;54011;50.772;7.730;2023-07-29T05:06:13;23.17;76.39
67093;SHT31;54011;50.772;7.730;2023-07-29T05:08:39;23.03;76.73
67093;SHT31;54011;50.772;7.730;2023-07-29T05:11:05;22.95;77.03
67093;SHT31;54011;50.772;7.730;2023-07-29T05:13:30;23.30;76.40
67093;SHT31;54011;50.772;7.730;2023-07-29T05:15:56;23.31;76.17
67093;SHT31;54011;50.772;7.730;2023-07-29T05:18:22;23.58;75.35
67093;SHT31;54011;50.772;7.730;2023-07-29T05:20:49;23.27;76.07
67093;SHT31;54011;50.772;7.730;2023-07-29T05:23:15;23.46;75.83
67093;SHT31;54011;50.772;7.730;2023-07-29T05:25:42;23.55;75.85
67093;SHT31;54011;50.772;7.730;2023-07-29T05:28:08;23.84;75.03
67093;SHT31;54011;50.772;7.730;2023-07-29T05:30:33;23.84;75.19
67093;SHT31;54011;50.772;7.730;2023-07-29T05:33:04;23.49;75.71
67093;SHT31;54011;50.772;7.730;2023-07-29T05:35:30;23.79;75.27
67093;SHT31;54011;50.772;7.730;2023-07-29T05:37:56;23.74;75.40
67093;SHT31;54011;50.772;7.730;2023-07-29T05:40:21;23.95;75.17
67093;SHT31;54011;50.772;7.730;2023-07-29T05:42:48;23.81;75.53
67093;SHT31;54011;50.772;7.730;2023-07-29T05:45:13;23.97;75.01
67093;SHT31;54011;50.772;7.730;2023-07-29T05:47:39;23.75;75.87
67093;SHT31;54011;50.772;7.730;2023-07-29T05:50:05;23.78;75.26
67093;SHT31;54011;50.772;7.730;2023-07-29T05:52:31;23.51;75.61
67093;SHT31;54011;50.772;7.730;2023-07-29T05:54:59;23.78;75.26
67093;SHT31;54011;50.772;7.730;2023-07-29T05:57:24;23.92;75.23
67093;SHT31;54011;50.772;7.730;2023-07-29T05:59:50;24.08;74.99
67093;SHT31;54011;50.772;7.730;2023-07-29T06:02:15;23.91;75.48
67093;SHT31;54011;50.772;7.730;2023-07-29T06:04:41;23.71;75.80
67093;SHT31;54011;50.772;7.730;2023-07-29T06:07:06;23.89;75.41
67093;SHT31;54011;50.772;7.730;2023-07-29T06:09:32;23.75;76.01
67093;SHT31;54011;50.772;7.730;2023-07-29T06:11:58;23.70;76.13
67093;SHT31;54011;50.772;7.730;2023-07-29T06:14:24;23.85;75.73
67093;SHT31;54011;50.772;7.730;2023-07-29T06:16:50;23.91;75.25
67093;SHT31;54011;50.772;7.730;2023-07-29T06:19:16;23.47;76.19
67093;SHT31;54011;50.772;7.730;2023-07-29T06:21:42;23.67;75.18
67093;SHT31;54011;50.772;7.730;2023-07-29T06:24:08;23.75;75.18
67093;SHT31;54011;50.772;7.730;2023-07-29T06:26:34;24.01;75.05
67093;SHT31;54011;50.772;7.730;2023-07-29T06:28:59;24.22;73.93
67093;SHT31;54011;50.772;7.730;2023-07-29T06:31:28;24.09;74.17
67093;SHT31;54011;50.772;7.730;2023-07-29T06:33:54;24.06;74.53
67093;SHT31;54011;50.772;7.730;2023-07-29T06:36:20;24.08;74.33
67093;SHT31;54011;50.772;7.730;2023-07-29T06:38:45;23.85;74.99
67093;SHT31;54011;50.772;7.730;2023-07-29T06:41:11;24.13;74.38
67093;SHT31;54011;50.772;7.730;2023-07-29T06:43:36;24.30;74.58
67093;SHT31;54011;50.772;7.730;2023-07-29T06:46:02;24.13;74.75
67093;SHT31;54011;50.772;7.730;2023-07-29T06:48:28;24.01;75.16
67093;SHT31;54011;50.772;7.730;2023-07-29T06:50:54;24.29;74.80
67093;SHT31;54011;50.772;7.730;2023-07-29T06:53:21;24.19;74.78
67093;SHT31;54011;50.772;7.730;2023-07-29T06:55:47;24.33;74.69
67093;SHT31;54011;50.772;7.730;2023-07-29T06:58:13;24.22;74.78
67093;SHT31;54011;50.772;7.730;2023-07-29T07:00:39;24.32;74.85
67093;SHT31;54011;50.772;7.730;2023-07-29T07:03:04;24.50;74.93
67093;SHT31;54011;50.772;7.730;2023-07-29T07:05:31;24.36;75.34
67093;SHT31;54011;50.772;7.730;2023-07-29T07:07:56;24.25;75.03
67093;SHT31;54011;50.772;7.730;2023-07-29T07:10:22;23.67;75.05
67093;SHT31;54011;50.772;7.730;2023-07-29T07:12:48;23.58;75.99
67093;SHT31;54011;50.772;7.730;2023-07-29T07:15:13;24.04;74.87
67093;SHT31;54011;50.772;7.730;2023-07-29T07:17:39;23.65;74.88
67093;SHT31;54011;50.772;7.730;2023-07-29T07:20:05;23.23;75.70
67093;SHT31;54011;50.772;7.730;2023-07-29T07:22:30;23.51;74.11
67093;SHT31;54011;50.772;7.730;2023-07-29T07:24:56;23.12;75.35
67093;SHT31;54011;50.772;7.730;2023-07-29T07:27:22;23.10;75.10
67093;SHT31;54011;50.772;7.730;2023-07-29T07:29:47;22.79;75.82
67093;SHT31;54011;50.772;7.730;2023-07-29T07:32:13;23.26;74.75
67093;SHT31;54011;50.772;7.730;2023-07-29T07:34:39;23.47;75.33
67093;SHT31;54011;50.772;7.730;2023-07-29T07:37:05;23.71;74.36
67093;SHT31;54011;50.772;7.730;2023-07-29T07:39:32;23.94;73.39
67093;SHT31;54011;50.772;7.730;2023-07-29T07:41:57;23.39;73.97
67093;SHT31;54011;50.772;7.730;2023-07-29T07:44:23;23.81;73.66
67093;SHT31;54011;50.772;7.730;2023-07-29T07:46:52;23.71;73.52
67093;SHT31;54011;50.772;7.730;2023-07-29T07:49:17;23.91;73.61
67093;SHT31;54011;50.772;7.730;2023-07-29T07:51:46;24.30;71.88
67093;SHT31;54011;50.772;7.730;2023-07-29T07:54:11;24.36;71.79
67093;SHT31;54011;50.772;7.730;2023-07-29T07:56:36;24.56;72.03
67093;SHT31;54011;50.772;7.730;2023-07-29T07:59:04;24.74;71.23
67093;SHT31;54011;50.772;7.730;2023-07-29T08:01:38;25.41;68.91
67093;SHT31;54011;50.772;7.730;2023-07-29T08:04:04;25.72;69.40
67093;SHT31;54011;50.772;7.730;2023-07-29T08:06:30;25.90;68.54
67093;SHT31;54011;50.772;7.730;2023-07-29T08:08:56;25.20;68.40
67093;SHT31;54011;50.772;7.730;2023-07-29T08:11:23;24.84;70.21
67093;SHT31;54011;50.772;7.730;2023-07-29T08:13:50;24.91;70.19
67093;SHT31;54011;50.772;7.730;2023-07-29T08:16:16;24.50;71.02
67093;SHT31;54011;50.772;7.730;2023-07-29T08:18:41;25.34;68.91
67093;SHT31;54011;50.772;7.730;2023-07-29T08:21:06;25.75;69.26
67093;SHT31;54011;50.772;7.730;2023-07-29T08:23:33;25.66;67.50
67093;SHT31;54011;50.772;7.730;2023-07-29T08:26:01;25.48;68.52
67093;SHT31;54011;50.772;7.730;2023-07-29T08:28:28;25.58;66.79
67093;SHT31;54011;50.772;7.730;2023-07-29T08:30:54;25.46;67.69
67093;SHT31;54011;50.772;7.730;2023-07-29T08:33:20;25.24;69.50
67093;SHT31;54011;50.772;7.730;2023-07-29T08:35:45;25.24;69.13
67093;SHT31;54011;50.772;7.730;2023-07-29T08:38:12;25.11;69.27
67093;SHT31;54011;50.772;7.730;2023-07-29T08:40:42;25.43;67.81
67093;SHT31;54011;50.772;7.730;2023-07-29T08:43:12;25.59;66.95
67093;SHT31;54011;50.772;7.730;2023-07-29T08:45:39;26.33;65.57
67093;SHT31;54011;50.772;7.730;2023-07-29T08:48:08;25.93;65.76
67093;SHT31;54011;50.772;7.730;2023-07-29T08:50:36;25.75;65.99
67093;SHT31;54011;50.772;7.730;2023-07-29T08:53:05;25.01;68.23
67093;SHT31;54011;50.772;7.730;2023-07-29T08:55:32;24.87;68.17
67093;SHT31;54011;50.772;7.730;2023-07-29T08:58:01;24.76;67.64
67093;SHT31;54011;50.772;7.730;2023-07-29T09:00:27;25.39;66.50
67093;SHT31;54011;50.772;7.730;2023-07-29T09:02:53;25.78;64.77
67093;SHT31;54011;50.772;7.730;2023-07-29T09:05:20;26.00;64.63
67093;SHT31;54011;50.772;7.730;2023-07-29T09:07:47;26.19;64.09
67093;SHT31;54011;50.772;7.730;2023-07-29T09:10:14;26.74;63.11
67093;SHT31;54011;50.772;7.730;2023-07-29T09:12:41;26.88;63.41
67093;SHT31;54011;50.772;7.730;2023-07-29T09:15:07;25.90;65.07
67093;SHT31;54011;50.772;7.730;2023-07-29T09:17:33;25.90;63.87
67093;SHT31;54011;50.772;7.730;2023-07-29T09:19:59;25.31;64.04
67093;SHT31;54011;50.772;7.730;2023-07-29T09:22:26;25.39;64.98
67093;SHT31;54011;50.772;7.730;2023-07-29T09:24:52;25.43;62.26
67093;SHT31;54011;50.772;7.730;2023-07-29T09:27:28;24.74;62.32
67093;SHT31;54011;50.772;7.730;2023-07-29T09:29:55;24.76;62.56
67093;SHT31;54011;50.772;7.730;2023-07-29T09:32:22;24.86;63.17
67093;SHT31;54011;50.772;7.730;2023-07-29T09:34:49;25.34;63.22
67093;SHT31;54011;50.772;7.730;2023-07-29T09:37:20;26.03;61.80
67093;SHT31;54011;50.772;7.730;2023-07-29T09:39:50;26.10;60.24
67093;SHT31;54011;50.772;7.730;2023-07-29T09:42:20;26.78;59.95
67093;SHT31;54011;50.772;7.730;2023-07-29T09:44:46;25.83;60.82
67093;SHT31;54011;50.772;7.730;2023-07-29T09:47:22;26.23;59.72
67093;SHT31;54011;50.772;7.730;2023-07-29T09:49:49;26.57;59.84
67093;SHT31;54011;50.772;7.730;2023-07-29T09:52:19;26.26;61.59
67093;SHT31;54011;50.772;7.730;2023-07-29T09:54:46;25.62;61.80
67093;SHT31;54011;50.772;7.730;2023-07-29T09:57:16;25.82;62.85
67093;SHT31;54011;50.772;7.730;2023-07-29T09:59:43;25.61;60.96
67093;SHT31;54011;50.772;7.730;2023-07-29T10:02:15;25.45;61.21
67093;SHT31;54011;50.772;7.730;2023-07-29T10:04:42;25.48;61.29
67093;SHT31;54011;50.772;7.730;2023-07-29T10:07:11;24.73;63.80
67093;SHT31;54011;50.772;7.730;2023-07-29T10:09:40;24.56;64.45
67093;SHT31;54011;50.772;7.730;2023-07-29T10:12:06;24.66;64.34
67093;SHT31;54011;50.772;7.730;2023-07-29T10:14:32;24.66;64.36
67093;SHT31;54011;50.772;7.730;2023-07-29T10:16:59;24.52;66.04
67093;SHT31;54011;50.772;7.730;2023-07-29T10:19:26;24.32;66.66
67093;SHT31;54011;50.772;7.730;2023-07-29T10:21:54;24.28;66.47
67093;SHT31;54011;50.772;7.730;2023-07-29T10:24:24;23.92;68.42
67093;SHT31;54011;50.772;7.730;2023-07-29T10:27:00;24.18;67.58
67093;SHT31;54011;50.772;7.730;2023-07-29T10:29:34;23.82;67.87
67093;SHT31;54011;50.772;7.730;2023-07-29T10:32:04;23.72;69.19
67093;SHT31;54011;50.772;7.730;2023-07-29T10:34:31;23.92;67.75
67093;SHT31;54011;50.772;7.730;2023-07-29T10:36:58;24.02;67.65
67093;SHT31;54011;50.772;7.730;2023-07-29T10:39:25;24.06;67.47
67093;SHT31;54011;50.772;7.730;2023-07-29T10:42:01;24.28;66.91
67093;SHT31;54011;50.772;7.730;2023-07-29T10:47:14;24.49;66.59
67093;SHT31;54011;50.772;7.730;2023-07-29T10:49:44;24.84;66.14
67093;SHT31;54011;50.772;7.730;2023-07-29T10:54:55;25.35;64.99
67093;SHT31;54011;50.772;7.730;2023-07-29T10:57:34;25.38;65.24
67093;SHT31;54011;50.772;7.730;2023-07-29T11:00:00;25.88;65.09
67093;SHT31;54011;50.772;7.730;2023-07-29T11:02:56;26.87;61.65
67093;SHT31;54011;50.772;7.730;2023-07-29T11:05:24;26.03;63.16
67093;SHT31;54011;50.772;7.730;2023-07-29T11:07:49;26.37;62.54
67093;SHT31;54011;50.772;7.730;2023-07-29T11:10:15;26.13;63.01
67093;SHT31;54011;50.772;7.730;2023-07-29T11:12:49;25.80;64.21
67093;SHT31;54011;50.772;7.730;2023-07-29T11:15:28;26.16;63.36
67093;SHT31;54011;50.772;7.730;2023-07-29T11:17:57;26.47;62.19
67093;SHT31;54011;50.772;7.730;2023-07-29T11:20:32;27.08;61.45
67093;SHT31;54011;50.772;7.730;2023-07-29T11:23:00;27.26;60.01
67093;SHT31;54011;50.772;7.730;2023-07-29T11:25:28;27.15;60.30
67093;SHT31;54011;50.772;7.730;2023-07-29T11:27:56;28.41;57.63
67093;SHT31;54011;50.772;7.730;2023-07-29T11:30:24;26.94;60.06
67093;SHT31;54011;50.772;7.730;2023-07-29T11:32:55;27.09;60.66
67093;SHT31;54011;50.772;7.730;2023-07-29T11:35:21;26.98;60.32
67093;SHT31;54011;50.772;7.730;2023-07-29T11:37:48;27.56;60.75
67093;SHT31;54011;50.772;7.730;2023-07-29T11:40:19;26.68;60.99
67093;SHT31;54011;50.772;7.730;2023-07-29T11:42:46;27.23;61.14
67093;SHT31;54011;50.772;7.730;2023-07-29T11:45:13;27.47;60.21
67093;SHT31;54011;50.772;7.730;2023-07-29T11:47:38;26.62;61.74
67093;SHT31;54011;50.772;7.730;2023-07-29T11:50:06;26.23;63.00
67093;SHT31;54011;50.772;7.730;2023-07-29T11:52:33;25.42;62.59
67093;SHT31;54011;50.772;7.730;2023-07-29T11:55:00;25.76;63.59
67093;SHT31;54011;50.772;7.730;2023-07-29T11:57:26;25.35;66.52
67093;SHT31;54011;50.772;7.730;2023-07-29T11:59:52;24.86;65.76
67093;SHT31;54011;50.772;7.730;2023-07-29T12:02:19;25.21;65.54
67093;SHT31;54011;50.772;7.730;2023-07-29T12:04:46;25.03;67.85
67093;SHT31;54011;50.772;7.730;2023-07-29T12:07:13;24.29;68.08
67093;SHT31;54011;50.772;7.730;2023-07-29T12:09:39;24.28;68.71
67093;SHT31;54011;50.772;7.730;2023-07-29T12:12:06;24.64;69.74
67093;SHT31;54011;50.772;7.730;2023-07-29T12:14:33;24.36;69.32
67093;SHT31;54011;50.772;7.730;2023-07-29T12:17:03;24.26;69.90
67093;SHT31;54011;50.772;7.730;2023-07-29T12:19:33;24.67;70.29
67093;SHT31;54011;50.772;7.730;2023-07-29T12:22:09;24.88;70.80
67093;SHT31;54011;50.772;7.730;2023-07-29T12:24:39;23.98;73.10
67093;SHT31;54011;50.772;7.730;2023-07-29T12:27:10;24.01;71.96
67093;SHT31;54011;50.772;7.730;2023-07-29T12:29:40;24.35;71.19
67093;SHT31;54011;50.772;7.730;2023-07-29T12:32:07;24.30;70.68
67093;SHT31;54011;50.772;7.730;2023-07-29T12:34:33;24.52;71.60
67093;SHT31;54011;50.772;7.730;2023-07-29T12:36:59;25.24;69.60
67093;SHT31;54011;50.772;7.730;2023-07-29T12:39:30;26.30;66.01
67093;SHT31;54011;50.772;7.730;2023-07-29T12:41:57;27.33;61.10
67093;SHT31;54011;50.772;7.730;2023-07-29T12:44:34;27.97;62.02
67093;SHT31;54011;50.772;7.730;2023-07-29T12:47:04;28.38;57.02
67093;SHT31;54011;50.772;7.730;2023-07-29T12:49:31;28.92;58.39
67093;SHT31;54011;50.772;7.730;2023-07-29T12:51:57;29.13;59.16
67093;SHT31;54011;50.772;7.730;2023-07-29T12:54:23;28.90;56.62
67093;SHT31;54011;50.772;7.730;2023-07-29T12:56:48;29.75;56.49
67093;SHT31;54011;50.772;7.730;2023-07-29T12:59:14;29.90;54.93
67093;SHT31;54011;50.772;7.730;2023-07-29T13:01:40;29.76;54.84
67093;SHT31;54011;50.772;7.730;2023-07-29T13:04:06;29.43;57.12
67093;SHT31;54011;50.772;7.730;2023-07-29T13:06:31;30.12;54.78
67093;SHT31;54011;50.772;7.730;2023-07-29T13:08:57;29.99;53.80
67093;SHT31;54011;50.772;7.730;2023-07-29T13:11:23;30.44;55.22
67093;SHT31;54011;50.772;7.730;2023-07-29T13:13:49;31.15;53.34
67093;SHT31;54011;50.772;7.730;2023-07-29T13:16:15;31.08;51.51
67093;SHT31;54011;50.772;7.730;2023-07-29T13:18:40;31.82;52.30
67093;SHT31;54011;50.772;7.730;2023-07-29T13:21:06;31.47;49.84
67093;SHT31;54011;50.772;7.730;2023-07-29T13:23:32;31.79;52.37
67093;SHT31;54011;50.772;7.730;2023-07-29T13:25:57;31.89;50.15
67093;SHT31;54011;50.772;7.730;2023-07-29T13:28:25;31.35;50.98
67093;SHT31;54011;50.772;7.730;2023-07-29T13:30:59;31.45;50.11
67093;SHT31;54011;50.772;7.730;2023-07-29T13:33:24;32.24;48.35
67093;SHT31;54011;50.772;7.730;2023-07-29T13:35:50;31.72;49.01
67093;SHT31;54011;50.772;7.730;2023-07-29T13:38:15;32.51;48.38
67093;SHT31;54011;50.772;7.730;2023-07-29T13:40:41;30.74;51.19
67093;SHT31;54011;50.772;7.730;2023-07-29T13:43:07;29.81;54.04
67093;SHT31;54011;50.772;7.730;2023-07-29T13:45:34;29.72;52.90
67093;SHT31;54011;50.772;7.730;2023-07-29T13:47:59;28.63;55.23
67093;SHT31;54011;50.772;7.730;2023-07-29T13:50:25;28.65;55.50
67093;SHT31;54011;50.772;7.730;2023-07-29T13:52:50;28.52;55.07
67093;SHT31;54011;50.772;7.730;2023-07-29T13:55:16;28.75;55.79
67093;SHT31;54011;50.772;7.730;2023-07-29T13:57:41;28.39;56.94
67093;SHT31;54011;50.772;7.730;2023-07-29T14:00:07;28.22;56.21
67093;SHT31;54011;50.772;7.730;2023-07-29T14:02:39;28.65;56.13
67093;SHT31;54011;50.772;7.730;2023-07-29T14:05:05;28.17;56.63
67093;SHT31;54011;50.772;7.730;2023-07-29T14:07:32;27.78;58.00
67093;SHT31;54011;50.772;7.730;2023-07-29T14:09:57;28.04;57.92
67093;SHT31;54011;50.772;7.730;2023-07-29T14:12:23;28.24;57.46
67093;SHT31;54011;50.772;7.730;2023-07-29T14:14:48;27.51;59.00
67093;SHT31;54011;50.772;7.730;2023-07-29T14:17:14;27.53;59.00
67093;SHT31;54011;50.772;7.730;2023-07-29T14:19:40;27.33;58.66
67093;SHT31;54011;50.772;7.730;2023-07-29T14:22:05;27.42;61.08
67093;SHT31;54011;50.772;7.730;2023-07-29T14:24:31;27.32;60.53
67093;SHT31;54011;50.772;7.730;2023-07-29T14:26:57;27.30;60.58
67093;SHT31;54011;50.772;7.730;2023-07-29T14:29:22;27.67;59.72
67093;SHT31;54011;50.772;7.730;2023-07-29T14:31:48;27.66;60.05
67093;SHT31;54011;50.772;7.730;2023-07-29T14:34:14;27.86;60.36
67093;SHT31;54011;50.772;7.730;2023-07-29T14:36:40;27.67;58.72
67093;SHT31;54011;50.772;7.730;2023-07-29T14:39:05;27.71;58.95
67093;SHT31;54011;50.772;7.730;2023-07-29T14:41:31;27.83;59.62
67093;SHT31;54011;50.772;7.730;2023-07-29T14:43:56;27.66;58.92
67093;SHT31;54011;50.772;7.730;2023-07-29T14:46:22;27.19;59.91
67093;SHT31;54011;50.772;7.730;2023-07-29T14:48:47;27.13;59.37
67093;SHT31;54011;50.772;7.730;2023-07-29T14:51:13;26.94;61.06
67093;SHT31;54011;50.772;7.730;2023-07-29T14:53:39;27.16;60.82
67093;SHT31;54011;50.772;7.730;2023-07-29T14:56:05;26.52;62.12
67093;SHT31;54011;50.772;7.730;2023-07-29T14:58:30;27.28;59.93
67093;SHT31;54011;50.772;7.730;2023-07-29T15:00:56;27.96;59.44
67093;SHT31;54011;50.772;7.730;2023-07-29T15:03:23;27.91;59.24
67093;SHT31;54011;50.772;7.730;2023-07-29T15:05:51;27.29;59.80
67093;SHT31;54011;50.772;7.730;2023-07-29T15:08:16;27.91;56.95
67093;SHT31;54011;50.772;7.730;2023-07-29T15:10:49;27.80;56.17
67093;SHT31;54011;50.772;7.730;2023-07-29T15:13:15;28.58;55.71
67093;SHT31;54011;50.772;7.730;2023-07-29T15:15:42;28.99;53.91
67093;SHT31;54011;50.772;7.730;2023-07-29T15:18:09;29.38;53.35
67093;SHT31;54011;50.772;7.730;2023-07-29T15:20:34;28.28;56.42
67093;SHT31;54011;50.772;7.730;2023-07-29T15:23:00;28.79;56.72
67093;SHT31;54011;50.772;7.730;2023-07-29T15:25:25;28.07;58.27
67093;SHT31;54011;50.772;7.730;2023-07-29T15:27:51;28.49;55.49
67093;SHT31;54011;50.772;7.730;2023-07-29T15:30:16;27.73;56.37
67093;SHT31;54011;50.772;7.730;2023-07-29T15:32:45;27.46;60.80
67093;SHT31;54011;50.772;7.730;2023-07-29T15:35:11;27.60;57.88
67093;SHT31;54011;50.772;7.730;2023-07-29T15:37:36;27.36;59.14